Time;durP1;ratioP1;P1;durP2;ratioP2;P2;SDS_P1;SDS_P2;PMS_P1;PMS_P2;Temp;Humidity;BMP_temperature;BMP_pressure;BME280_temperature;BME280_humidity;BME280_pressure;Samples;Min_cycle;Max_cycle;Signal;HPM_P1;HPM_P2
2020/12/05 00:00:30;;;;;;;35.67;16.90;;;;;;;;;;5014172;28;20137;-82
2020/12/05 00:02:57;;;;;;;37.63;18.48;;;;;;;;;;5017126;28;20093;-83
2020/12/05 00:05:23;;;;;;;40.17;18.50;;;;;;;;;;5032260;28;20077;-82
2020/12/05 00:07:49;;;;;;;37.13;17.45;;;;;;;;;;4998061;28;20046;-82
2020/12/05 00:10:16;;;;;;;40.95;18.75;;;;;;;;;;5015919;28;20052;-82
2020/12/05 00:12:42;;;;;;;39.95;17.90;;;;;;;;;;5014990;28;20050;-82
2020/12/05 00:15:08;;;;;;;36.75;17.45;;;;;;;;;;5015262;28;20042;-82
2020/12/05 00:17:34;;;;;;;38.53;17.05;;;;;;;;;;4998555;28;20499;-82
2020/12/05 00:20:00;;;;;;;37.47;17.70;;;;;;;;;;5016880;28;20126;-81
2020/12/05 00:22:28;;;;;;;37.17;17.58;;;;;;;;;;5017419;28;20045;-82
2020/12/05 00:24:54;;;;;;;34.72;17.17;;;;;;;;;;4985231;28;20045;-82
2020/12/05 00:27:21;;;;;;;37.40;17.77;;;;;;;;;;5018681;28;20288;-82
2020/12/05 00:29:47;;;;;;;36.28;17.60;;;;;;;;;;5017861;28;20052;-82
2020/12/05 00:32:14;;;;;;;37.72;17.35;;;;;;;;;;5017627;28;20445;-81
2020/12/05 00:34:43;;;;;;;34.67;17.33;;;;;;;;;;5021329;28;20053;-81
2020/12/05 00:37:09;;;;;;;34.88;16.70;;;;;;;;;;5004215;28;20045;-82
2020/12/05 00:39:35;;;;;;;37.75;16.33;;;;;;;;;;5016957;28;20144;-81
2020/12/05 00:42:02;;;;;;;35.85;17.60;;;;;;;;;;5016072;28;20046;-82
2020/12/05 00:44:28;;;;;;;36.50;17.23;;;;;;;;;;4998790;28;20149;-81
2020/12/05 00:46:57;;;;;;;36.20;17.33;;;;;;;;;;5013756;28;20325;-81
2020/12/05 00:49:23;;;;;;;36.50;17.20;;;;;;;;;;5017570;28;20038;-82
2020/12/05 00:51:50;;;;;;;40.63;17.15;;;;;;;;;;5000670;28;20046;-81
2020/12/05 00:54:18;;;;;;;34.63;17.17;;;;;;;;;;5018090;28;20045;-82
2020/12/05 00:56:45;;;;;;;35.20;16.58;;;;;;;;;;5017620;28;20505;-81
2020/12/05 00:59:11;;;;;;;36.10;17.00;;;;;;;;;;5016129;28;20049;-82
2020/12/05 01:01:38;;;;;;;38.70;17.33;;;;;;;;;;5016277;28;20065;-82
2020/12/05 01:04:04;;;;;;;36.95;17.38;;;;;;;;;;5017255;28;20046;-82
2020/12/05 01:06:30;;;;;;;33.25;16.25;;;;;;;;;;5018683;28;20065;-80
2020/12/05 01:08:57;;;;;;;34.63;16.75;;;;;;;;;;5008267;28;20497;-82
2020/12/05 01:11:24;;;;;;;34.17;16.23;;;;;;;;;;5016869;28;20117;-81
2020/12/05 01:13:50;;;;;;;32.88;16.30;;;;;;;;;;4998866;28;20056;-81
2020/12/05 01:16:16;;;;;;;36.72;17.08;;;;;;;;;;4998084;28;20105;-81
2020/12/05 01:18:43;;;;;;;32.95;15.77;;;;;;;;;;5017247;28;20042;-82
2020/12/05 01:21:11;;;;;;;32.60;15.63;;;;;;;;;;5017412;28;20053;-82
2020/12/05 01:23:37;;;;;;;33.45;15.50;;;;;;;;;;5015544;28;20038;-81
2020/12/05 01:26:03;;;;;;;30.10;15.32;;;;;;;;;;5013016;28;20041;-82
2020/12/05 01:28:30;;;;;;;32.97;15.38;;;;;;;;;;4997178;28;20070;-82
2020/12/05 01:30:56;;;;;;;35.03;16.48;;;;;;;;;;4997649;28;20048;-82
2020/12/05 01:33:22;;;;;;;31.70;15.45;;;;;;;;;;5017499;28;20046;-82
2020/12/05 01:35:48;;;;;;;32.00;15.57;;;;;;;;;;4999225;28;20045;-81
2020/12/05 01:38:14;;;;;;;31.92;15.93;;;;;;;;;;5027628;28;20061;-82
2020/12/05 01:40:48;;;;;;;32.15;15.50;;;;;;;;;;5015881;28;20066;-81
2020/12/05 01:43:14;;;;;;;34.58;16.80;;;;;;;;;;5014004;28;20045;-82
2020/12/05 01:45:41;;;;;;;30.50;15.07;;;;;;;;;;5015850;28;20490;-81
2020/12/05 01:48:07;;;;;;;33.33;15.80;;;;;;;;;;5017130;28;20045;-81
2020/12/05 01:50:34;;;;;;;29.13;14.73;;;;;;;;;;5016480;28;20454;-81
2020/12/05 01:53:03;;;;;;;31.08;15.38;;;;;;;;;;4999395;28;20042;-81
2020/12/05 01:55:29;;;;;;;30.20;15.30;;;;;;;;;;5015824;28;20511;-82
2020/12/05 01:57:55;;;;;;;31.92;14.77;;;;;;;;;;5019439;28;20053;-81
2020/12/05 02:00:22;;;;;;;29.85;13.95;;;;;;;;;;5021051;28;20045;-83
2020/12/05 02:02:48;;;;;;;27.38;14.00;;;;;;;;;;5018206;28;20042;-83
2020/12/05 02:05:44;;;;;;;31.33;14.75;;;;;;;;;;5015649;28;20042;-82
2020/12/05 02:08:12;;;;;;;24.40;12.47;;;;;;;;;;4965389;28;20514;-82
2020/12/05 02:10:46;;;;;;;35.55;16.15;;;;;;;;;;4994506;28;20133;-83
2020/12/05 02:13:17;;;;;;;30.80;15.30;;;;;;;;;;4991946;28;20532;-83
2020/12/05 02:15:45;;;;;;;32.35;15.88;;;;;;;;;;5008245;28;20046;-82
2020/12/05 02:18:12;;;;;;;32.08;14.70;;;;;;;;;;4993965;28;20047;-80
2020/12/05 02:20:39;;;;;;;30.75;15.38;;;;;;;;;;4993411;28;20050;-81
2020/12/05 02:23:12;;;;;;;31.85;15.15;;;;;;;;;;4994230;28;20050;-81
2020/12/05 02:25:52;;;;;;;30.67;14.60;;;;;;;;;;5002523;28;20042;-81
2020/12/05 02:28:19;;;;;;;29.05;14.25;;;;;;;;;;4996152;28;20047;-84
2020/12/05 02:30:46;;;;;;;28.83;15.18;;;;;;;;;;4995941;28;20077;-81
2020/12/05 02:33:13;;;;;;;27.00;13.93;;;;;;;;;;4997529;28;20053;-82
2020/12/05 02:35:39;;;;;;;28.48;14.20;;;;;;;;;;4995111;28;20491;-81
2020/12/05 02:38:28;;;;;;;29.65;14.05;;;;;;;;;;5018831;28;20038;-82
2020/12/05 02:40:56;;;;;;;28.33;14.10;;;;;;;;;;4996537;28;20104;-81
2020/12/05 02:43:22;;;;;;;26.90;13.18;;;;;;;;;;4994567;28;20465;-81
2020/12/05 02:45:49;;;;;;;31.77;13.90;;;;;;;;;;5015519;28;20048;-82
2020/12/05 02:48:15;;;;;;;31.23;14.30;;;;;;;;;;5014729;28;20452;-81
2020/12/05 02:50:42;;;;;;;28.17;13.82;;;;;;;;;;5015371;28;20095;-81
2020/12/05 02:53:08;;;;;;;30.40;13.93;;;;;;;;;;5014313;28;20046;-81
2020/12/05 02:55:33;;;;;;;28.25;13.30;;;;;;;;;;5013799;28;20565;-81
2020/12/05 02:58:00;;;;;;;27.10;13.30;;;;;;;;;;4997339;28;20068;-81
2020/12/05 03:00:26;;;;;;;27.10;13.93;;;;;;;;;;4997268;28;20153;-82
2020/12/05 03:02:52;;;;;;;27.25;13.48;;;;;;;;;;5016123;28;20086;-81
2020/12/05 03:05:19;;;;;;;25.00;12.20;;;;;;;;;;5019973;28;20128;-81
2020/12/05 03:07:45;;;;;;;27.58;13.15;;;;;;;;;;5010569;28;20046;-81
2020/12/05 03:10:11;;;;;;;28.27;12.60;;;;;;;;;;5010760;28;20069;-80
2020/12/05 03:12:37;;;;;;;25.08;12.40;;;;;;;;;;5012203;28;20075;-79
2020/12/05 03:15:04;;;;;;;22.00;11.25;;;;;;;;;;5014766;28;20046;-80
2020/12/05 03:17:30;;;;;;;25.30;11.90;;;;;;;;;;5014907;28;20045;-80
2020/12/05 03:19:56;;;;;;;26.13;12.52;;;;;;;;;;5014138;28;20132;-80
2020/12/05 03:22:23;;;;;;;29.67;13.65;;;;;;;;;;5015144;28;20069;-81
2020/12/05 03:24:49;;;;;;;23.90;12.20;;;;;;;;;;5014126;28;20042;-81
2020/12/05 03:27:15;;;;;;;24.17;12.48;;;;;;;;;;5012896;28;20053;-82
2020/12/05 03:29:42;;;;;;;25.90;12.95;;;;;;;;;;5012066;28;20048;-80
2020/12/05 03:34:34;;;;;;;27.15;12.98;;;;;;;;;;5013952;28;20052;-81
2020/12/05 03:37:01;;;;;;;24.95;12.15;;;;;;;;;;5014637;28;20050;-81
2020/12/05 03:39:27;;;;;;;26.27;12.68;;;;;;;;;;5013543;28;20046;-82
2020/12/05 03:41:53;;;;;;;25.17;12.73;;;;;;;;;;5013666;28;20329;-82
2020/12/05 03:44:20;;;;;;;25.15;12.23;;;;;;;;;;5014951;28;20042;-82
2020/12/05 03:46:46;;;;;;;26.35;12.50;;;;;;;;;;5014472;28;20103;-81
2020/12/05 03:49:15;;;;;;;30.33;12.75;;;;;;;;;;5015634;28;20050;-81
2020/12/05 03:51:42;;;;;;;26.95;12.80;;;;;;;;;;5014029;28;20077;-81
2020/12/05 03:54:08;;;;;;;27.15;11.85;;;;;;;;;;5015750;28;20385;-82
2020/12/05 03:56:34;;;;;;;22.13;11.48;;;;;;;;;;5014607;28;20045;-82
2020/12/05 03:59:03;;;;;;;27.15;11.45;;;;;;;;;;5023783;28;20030;-79
2020/12/05 04:01:29;;;;;;;23.98;10.82;;;;;;;;;;5018689;28;20049;-80
2020/12/05 04:03:57;;;;;;;23.52;11.75;;;;;;;;;;5022143;28;20120;-81
2020/12/05 04:06:24;;;;;;;22.35;11.07;;;;;;;;;;5014850;28;20065;-81
2020/12/05 04:08:50;;;;;;;23.45;10.85;;;;;;;;;;4979781;28;20054;-82
2020/12/05 04:11:17;;;;;;;26.35;10.73;;;;;;;;;;4996419;28;20382;-81
2020/12/05 04:13:43;;;;;;;21.38;10.85;;;;;;;;;;5013965;28;20050;-81
2020/12/05 04:16:09;;;;;;;24.25;10.85;;;;;;;;;;5011573;28;20125;-81
2020/12/05 04:18:35;;;;;;;22.80;10.90;;;;;;;;;;5011842;28;20053;-82
2020/12/05 04:21:04;;;;;;;22.13;11.30;;;;;;;;;;5004381;28;20089;-81
2020/12/05 04:23:30;;;;;;;25.17;11.70;;;;;;;;;;5014207;28;20042;-81
2020/12/05 04:25:57;;;;;;;22.42;10.48;;;;;;;;;;5014440;28;20042;-82
2020/12/05 04:28:23;;;;;;;21.65;10.27;;;;;;;;;;5029211;28;20049;-82
2020/12/05 04:30:50;;;;;;;21.98;11.02;;;;;;;;;;5013384;28;20413;-82
2020/12/05 04:33:16;;;;;;;24.10;11.50;;;;;;;;;;5013882;28;20046;-81
2020/12/05 04:35:42;;;;;;;21.77;11.35;;;;;;;;;;5015264;28;20046;-82
2020/12/05 04:38:08;;;;;;;23.30;11.85;;;;;;;;;;5019710;28;20413;-82
2020/12/05 04:40:35;;;;;;;28.20;11.65;;;;;;;;;;5020465;28;20413;-83
2020/12/05 04:43:02;;;;;;;23.88;11.32;;;;;;;;;;5019959;28;20042;-83
2020/12/05 04:45:29;;;;;;;26.08;12.02;;;;;;;;;;5017235;28;20053;-82
2020/12/05 04:47:56;;;;;;;22.67;10.75;;;;;;;;;;5017494;28;20034;-81
2020/12/05 04:50:22;;;;;;;24.38;11.32;;;;;;;;;;5016345;28;20037;-82
2020/12/05 04:52:49;;;;;;;21.55;10.32;;;;;;;;;;5016012;28;20041;-82
2020/12/05 04:55:16;;;;;;;23.15;10.95;;;;;;;;;;5016401;28;20088;-80
2020/12/05 04:57:45;;;;;;;21.02;9.95;;;;;;;;;;5017082;28;20045;-82
2020/12/05 05:00:12;;;;;;;18.45;9.75;;;;;;;;;;5016545;28;20048;-82
2020/12/05 05:02:42;;;;;;;19.88;9.57;;;;;;;;;;5015977;28;20065;-83
2020/12/05 05:05:09;;;;;;;20.33;9.85;;;;;;;;;;5016349;28;20050;-82
2020/12/05 05:07:46;;;;;;;18.33;9.27;;;;;;;;;;5017085;28;20060;-82
2020/12/05 05:10:16;;;;;;;19.92;9.68;;;;;;;;;;4999522;28;20050;-82
2020/12/05 05:12:43;;;;;;;20.42;9.25;;;;;;;;;;5016022;28;20042;-81
2020/12/05 05:15:30;;;;;;;19.08;8.95;;;;;;;;;;4994555;28;20064;-82
2020/12/05 05:18:01;;;;;;;19.05;9.40;;;;;;;;;;5036206;28;20045;-79
2020/12/05 05:20:28;;;;;;;19.65;9.57;;;;;;;;;;5016330;28;20038;-81
2020/12/05 05:23:13;;;;;;;22.08;9.73;;;;;;;;;;5001308;28;20054;-81
2020/12/05 05:25:49;;;;;;;19.13;9.27;;;;;;;;;;5020183;28;20042;-80
2020/12/05 05:28:42;;;;;;;20.33;10.18;;;;;;;;;;5009837;28;20232;-80
2020/12/05 05:31:42;;;;;;;21.20;10.10;;;;;;;;;;5019834;28;20064;-80
2020/12/05 05:34:07;;;;;;;21.58;9.98;;;;;;;;;;5047852;28;20084;-80
2020/12/05 05:36:34;;;;;;;21.15;9.45;;;;;;;;;;5030802;28;20038;-81
2020/12/05 05:39:04;;;;;;;17.13;9.15;;;;;;;;;;5031203;28;20076;-81
2020/12/05 05:41:31;;;;;;;19.70;9.55;;;;;;;;;;5031177;28;20088;-81
2020/12/05 05:44:04;;;;;;;17.05;8.88;;;;;;;;;;5031327;28;20038;-80
2020/12/05 05:46:34;;;;;;;18.67;8.70;;;;;;;;;;5008701;28;20043;-84
2020/12/05 05:49:02;;;;;;;18.55;8.70;;;;;;;;;;5012345;28;20043;-80
2020/12/05 05:51:36;;;;;;;17.05;8.05;;;;;;;;;;5006716;28;20046;-82
2020/12/05 05:54:28;;;;;;;16.50;8.45;;;;;;;;;;5008667;28;20188;-81
2020/12/05 05:57:05;;;;;;;16.55;8.15;;;;;;;;;;5007415;28;20125;-81
2020/12/05 05:59:36;;;;;;;21.58;8.55;;;;;;;;;;5009656;28;20095;-82
2020/12/05 06:02:03;;;;;;;16.00;7.70;;;;;;;;;;5012218;28;20038;-82
2020/12/05 06:04:37;;;;;;;17.33;8.43;;;;;;;;;;5016510;28;20042;-82
2020/12/05 06:07:05;;;;;;;15.68;7.85;;;;;;;;;;5027980;28;20030;-81
2020/12/05 06:09:34;;;;;;;14.07;7.38;;;;;;;;;;5021782;28;20072;-82
2020/12/05 06:12:03;;;;;;;13.10;7.28;;;;;;;;;;5033554;28;20036;-84
2020/12/05 06:14:32;;;;;;;15.07;7.32;;;;;;;;;;5014079;28;20050;-85
2020/12/05 06:17:22;;;;;;;19.10;8.63;;;;;;;;;;5032591;28;20050;-83
2020/12/05 06:19:49;;;;;;;19.90;9.77;;;;;;;;;;5038261;28;20041;-82
2020/12/05 06:22:27;;;;;;;25.60;12.00;;;;;;;;;;5021643;28;20053;-83
2020/12/05 06:24:58;;;;;;;27.48;14.20;;;;;;;;;;4999140;28;20521;-81
2020/12/05 06:27:25;;;;;;;29.83;14.25;;;;;;;;;;5017155;28;20486;-82
2020/12/05 06:29:52;;;;;;;30.60;15.27;;;;;;;;;;5015572;28;20137;-82
2020/12/05 06:32:38;;;;;;;31.08;15.32;;;;;;;;;;5016288;28;20061;-82
2020/12/05 06:35:24;;;;;;;32.40;16.40;;;;;;;;;;5032238;28;20125;-83
2020/12/05 06:37:54;;;;;;;31.75;16.35;;;;;;;;;;5011921;28;20066;-81
2020/12/05 06:40:24;;;;;;;33.88;16.30;;;;;;;;;;5038710;28;20513;-81
2020/12/05 06:42:55;;;;;;;34.75;17.50;;;;;;;;;;5041857;28;20489;-81
2020/12/05 06:45:27;;;;;;;35.72;17.63;;;;;;;;;;5017610;28;20080;-82
2020/12/05 06:48:09;;;;;;;35.42;18.17;;;;;;;;;;5019881;28;20038;-81
2020/12/05 06:50:39;;;;;;;40.63;19.52;;;;;;;;;;5022749;28;20081;-82
2020/12/05 06:53:20;;;;;;;39.38;19.13;;;;;;;;;;5016980;28;20486;-82
2020/12/05 06:55:47;;;;;;;44.83;19.33;;;;;;;;;;5010720;28;20045;-81
2020/12/05 06:58:13;;;;;;;39.95;19.52;;;;;;;;;;4992652;28;20080;-81
2020/12/05 07:00:40;;;;;;;42.83;18.73;;;;;;;;;;5008833;28;20200;-81
2020/12/05 07:03:10;;;;;;;38.67;18.55;;;;;;;;;;5011646;28;20037;-81
2020/12/05 07:05:36;;;;;;;39.42;19.70;;;;;;;;;;5033290;28;20133;-83
2020/12/05 07:08:22;;;;;;;39.75;19.10;;;;;;;;;;5016369;28;20065;-81
2020/12/05 07:10:58;;;;;;;41.55;20.05;;;;;;;;;;4991265;28;20046;-81
2020/12/05 07:13:26;;;;;;;44.83;20.75;;;;;;;;;;4993172;28;20127;-80
2020/12/05 07:16:07;;;;;;;43.05;20.55;;;;;;;;;;5003884;28;20040;-79
2020/12/05 07:18:36;;;;;;;44.03;20.60;;;;;;;;;;5012970;28;20046;-81
2020/12/05 07:21:09;;;;;;;41.00;19.77;;;;;;;;;;5027047;28;20461;-83
2020/12/05 07:23:36;;;;;;;43.08;20.90;;;;;;;;;;5029860;28;20046;-82
2020/12/05 07:26:03;;;;;;;40.55;19.20;;;;;;;;;;5013264;28;20401;-82
2020/12/05 07:28:29;;;;;;;41.00;19.45;;;;;;;;;;4994801;28;20045;-82
2020/12/05 07:30:56;;;;;;;45.72;20.38;;;;;;;;;;5011569;28;20160;-82
2020/12/05 07:33:22;;;;;;;40.05;19.30;;;;;;;;;;5009780;28;20058;-82
2020/12/05 07:35:56;;;;;;;42.13;20.08;;;;;;;;;;5013207;28;20105;-82
2020/12/05 07:38:22;;;;;;;44.78;21.08;;;;;;;;;;5013316;28;20132;-82
2020/12/05 07:40:51;;;;;;;42.97;20.30;;;;;;;;;;5014005;28;20071;-82
2020/12/05 07:43:18;;;;;;;43.20;20.88;;;;;;;;;;5009787;28;20053;-82
2020/12/05 07:45:45;;;;;;;40.15;20.08;;;;;;;;;;5030225;28;20386;-83
2020/12/05 07:48:12;;;;;;;41.00;20.52;;;;;;;;;;5003457;28;20051;-82
2020/12/05 07:50:40;;;;;;;41.63;20.38;;;;;;;;;;5019109;28;20045;-83
2020/12/05 07:53:24;;;;;;;38.22;19.70;;;;;;;;;;5027799;28;20044;-83
2020/12/05 07:55:50;;;;;;;42.42;19.42;;;;;;;;;;4997277;28;20046;-79
2020/12/05 07:58:16;;;;;;;63.17;29.75;;;;;;;;;;5004803;28;20094;-79
2020/12/05 08:00:43;;;;;;;73.70;33.28;;;;;;;;;;5013674;28;20038;-78
2020/12/05 08:03:35;;;;;;;73.15;34.05;;;;;;;;;;5011761;28;20038;-83
2020/12/05 08:06:07;;;;;;;45.33;21.83;;;;;;;;;;5032224;28;20072;-83
2020/12/05 08:08:35;;;;;;;40.38;19.13;;;;;;;;;;5016735;28;20065;-83
2020/12/05 08:11:01;;;;;;;40.15;18.13;;;;;;;;;;5017384;28;20046;-83
2020/12/05 08:13:30;;;;;;;34.28;17.80;;;;;;;;;;5017508;28;20069;-82
2020/12/05 08:16:06;;;;;;;66.03;26.95;;;;;;;;;;5036052;28;20038;-83
2020/12/05 08:18:33;;;;;;;61.83;25.35;;;;;;;;;;5015037;28;20046;-83
2020/12/05 08:21:00;;;;;;;55.63;23.92;;;;;;;;;;5015481;28;20054;-83
2020/12/05 08:23:34;;;;;;;62.53;26.75;;;;;;;;;;5022327;28;20050;-83
2020/12/05 08:26:03;;;;;;;96.97;39.25;;;;;;;;;;5035175;28;20038;-83
2020/12/05 08:28:31;;;;;;;95.78;36.50;;;;;;;;;;5018693;28;20406;-83
2020/12/05 08:31:02;;;;;;;70.47;32.00;;;;;;;;;;5021200;28;20082;-82
2020/12/05 08:33:29;;;;;;;36.65;18.80;;;;;;;;;;5019188;28;20045;-83
2020/12/05 08:35:55;;;;;;;31.75;16.33;;;;;;;;;;5002389;28;20050;-82
2020/12/05 08:38:22;;;;;;;34.47;17.20;;;;;;;;;;5007790;28;20054;-85
2020/12/05 08:41:03;;;;;;;33.70;17.33;;;;;;;;;;5006005;28;20141;-83
2020/12/05 08:43:29;;;;;;;31.17;16.73;;;;;;;;;;5035934;28;20041;-83
2020/12/05 08:45:55;;;;;;;30.35;16.70;;;;;;;;;;5015864;28;20087;-83
2020/12/05 08:48:22;;;;;;;33.65;17.33;;;;;;;;;;4981495;28;20046;-82
2020/12/05 08:50:48;;;;;;;30.50;16.23;;;;;;;;;;5006745;28;20052;-82
2020/12/05 08:53:15;;;;;;;31.40;16.60;;;;;;;;;;5017849;28;20046;-83
2020/12/05 08:55:48;;;;;;;29.55;16.85;;;;;;;;;;5018411;28;20053;-83
2020/12/05 08:58:14;;;;;;;31.90;17.00;;;;;;;;;;5010637;28;20042;-83
2020/12/05 09:00:40;;;;;;;33.10;16.90;;;;;;;;;;4998429;28;20038;-83
2020/12/05 09:03:16;;;;;;;31.55;17.65;;;;;;;;;;4998508;28;20051;-83
2020/12/05 09:05:50;;;;;;;28.58;16.30;;;;;;;;;;5012243;28;20145;-83
2020/12/05 09:08:20;;;;;;;28.48;15.85;;;;;;;;;;4995601;28;20684;-83
2020/12/05 09:10:46;;;;;;;29.20;16.00;;;;;;;;;;4996339;28;20510;-83
2020/12/05 09:13:13;;;;;;;29.58;15.95;;;;;;;;;;4996948;28;20080;-84
2020/12/05 09:15:52;;;;;;;34.58;15.93;;;;;;;;;;5008949;28;20060;-83
2020/12/05 09:18:18;;;;;;;35.95;17.00;;;;;;;;;;4997631;28;20042;-83
2020/12/05 09:20:44;;;;;;;34.97;15.95;;;;;;;;;;5007838;28;20052;-82
2020/12/05 09:23:11;;;;;;;33.60;16.92;;;;;;;;;;5017068;28;20444;-83
2020/12/05 09:25:41;;;;;;;29.67;15.82;;;;;;;;;;5014808;28;20042;-83
2020/12/05 09:28:17;;;;;;;31.73;16.70;;;;;;;;;;5017128;28;20038;-82
2020/12/05 09:30:43;;;;;;;34.63;17.02;;;;;;;;;;5017069;28;20205;-83
2020/12/05 09:33:11;;;;;;;30.63;16.25;;;;;;;;;;5017919;28;20227;-83
2020/12/05 09:35:37;;;;;;;31.75;16.75;;;;;;;;;;5033333;28;20046;-83
2020/12/05 09:38:06;;;;;;;30.48;16.42;;;;;;;;;;5039449;28;20218;-83
2020/12/05 09:40:32;;;;;;;31.52;17.30;;;;;;;;;;5038866;28;20049;-83
2020/12/05 09:42:59;;;;;;;32.22;17.45;;;;;;;;;;5021625;28;20056;-83
2020/12/05 09:45:25;;;;;;;32.05;17.25;;;;;;;;;;5020924;28;20077;-83
2020/12/05 09:47:52;;;;;;;32.75;16.58;;;;;;;;;;5018669;28;20046;-83
2020/12/05 09:50:19;;;;;;;30.15;15.73;;;;;;;;;;5019243;28;20038;-83
2020/12/05 09:52:45;;;;;;;30.88;15.93;;;;;;;;;;5017526;28;20046;-83
2020/12/05 09:55:12;;;;;;;27.40;14.38;;;;;;;;;;5018526;28;20048;-83
2020/12/05 09:57:39;;;;;;;26.50;14.10;;;;;;;;;;5017937;28;20042;-83
2020/12/05 10:00:10;;;;;;;25.77;13.35;;;;;;;;;;5002238;28;20054;-83
2020/12/05 10:02:37;;;;;;;31.55;13.75;;;;;;;;;;5034143;28;20057;-83
2020/12/05 10:05:04;;;;;;;23.38;11.75;;;;;;;;;;5017436;28;20046;-83
2020/12/05 10:07:30;;;;;;;24.50;11.60;;;;;;;;;;5033617;28;20122;-83
2020/12/05 10:09:57;;;;;;;22.50;10.82;;;;;;;;;;5034207;28;20457;-83
2020/12/05 10:12:23;;;;;;;18.92;9.30;;;;;;;;;;5018261;28;20048;-83
2020/12/05 10:14:49;;;;;;;19.25;10.25;;;;;;;;;;5000644;28;20050;-83
2020/12/05 10:17:16;;;;;;;22.80;11.30;;;;;;;;;;5018308;28;20053;-83
2020/12/05 10:19:45;;;;;;;23.20;11.85;;;;;;;;;;5018393;28;20104;-83
2020/12/05 10:22:19;;;;;;;20.95;10.35;;;;;;;;;;5001694;28;20088;-83
2020/12/05 10:24:46;;;;;;;19.02;9.80;;;;;;;;;;5017013;28;20034;-82
2020/12/05 10:27:12;;;;;;;18.92;9.95;;;;;;;;;;5016588;28;20042;-83
2020/12/05 10:29:38;;;;;;;20.23;10.75;;;;;;;;;;5016888;28;20046;-83
2020/12/05 10:32:05;;;;;;;19.35;11.02;;;;;;;;;;5016913;28;20042;-83
2020/12/05 10:34:31;;;;;;;22.92;11.32;;;;;;;;;;5030654;28;20048;-83
2020/12/05 10:36:57;;;;;;;21.77;11.80;;;;;;;;;;5018591;28;20034;-82
2020/12/05 10:39:24;;;;;;;22.85;12.18;;;;;;;;;;5012826;28;20046;-83
2020/12/05 10:41:51;;;;;;;20.80;11.30;;;;;;;;;;4997952;28;20085;-83
2020/12/05 10:44:17;;;;;;;25.20;12.32;;;;;;;;;;5014894;28;20146;-84
2020/12/05 10:46:44;;;;;;;21.77;11.30;;;;;;;;;;4998626;28;20076;-83
2020/12/05 10:49:11;;;;;;;27.08;12.45;;;;;;;;;;5014875;28;20052;-83
2020/12/05 10:51:38;;;;;;;25.17;12.45;;;;;;;;;;5030927;28;20042;-84
2020/12/05 10:54:05;;;;;;;22.67;11.88;;;;;;;;;;5021155;28;20085;-83
2020/12/05 10:56:31;;;;;;;42.65;13.40;;;;;;;;;;5016991;28;20128;-84
2020/12/05 10:58:58;;;;;;;25.38;12.90;;;;;;;;;;5014354;28;20053;-83
2020/12/05 11:01:28;;;;;;;23.00;12.25;;;;;;;;;;4997009;28;20124;-83
2020/12/05 11:03:54;;;;;;;22.77;12.27;;;;;;;;;;5005239;28;20037;-83
2020/12/05 11:06:21;;;;;;;21.02;11.30;;;;;;;;;;5021412;28;20089;-84
2020/12/05 11:08:48;;;;;;;24.23;11.20;;;;;;;;;;5007210;28;20378;-82
2020/12/05 11:11:14;;;;;;;23.27;11.10;;;;;;;;;;5013107;28;20050;-79
2020/12/05 11:13:40;;;;;;;24.55;12.13;;;;;;;;;;5015025;28;20545;-83
2020/12/05 11:16:08;;;;;;;24.17;11.88;;;;;;;;;;5020478;28;20042;-83
2020/12/05 11:18:35;;;;;;;22.67;11.80;;;;;;;;;;5013414;28;20098;-84
2020/12/05 11:21:01;;;;;;;21.92;12.40;;;;;;;;;;4999473;28;20052;-84
2020/12/05 11:23:28;;;;;;;21.27;11.45;;;;;;;;;;5015075;28;20042;-84
2020/12/05 11:26:04;;;;;;;23.67;12.15;;;;;;;;;;5012045;23;20054;-79
2020/12/05 11:28:47;;;;;;;23.38;11.75;;;;;;;;;;4976955;28;20038;-79
2020/12/05 11:31:15;;;;;;;25.77;12.85;;;;;;;;;;4957286;28;20043;-77
2020/12/05 11:33:43;;;;;;;25.88;12.82;;;;;;;;;;4976252;28;20097;-78
2020/12/05 11:36:15;;;;;;;22.45;12.35;;;;;;;;;;4988647;28;20046;-79
2020/12/05 11:38:53;;;;;;;22.02;11.90;;;;;;;;;;4987504;28;20054;-79
2020/12/05 11:41:19;;;;;;;22.85;12.68;;;;;;;;;;4987138;28;20049;-79
2020/12/05 11:43:46;;;;;;;23.85;13.15;;;;;;;;;;4990386;28;20076;-78
2020/12/05 11:46:14;;;;;;;23.25;11.68;;;;;;;;;;4983274;28;20083;-79
2020/12/05 11:48:40;;;;;;;22.20;11.90;;;;;;;;;;5002107;28;20556;-79
2020/12/05 11:51:08;;;;;;;22.75;12.27;;;;;;;;;;4993769;28;20387;-79
2020/12/05 11:53:36;;;;;;;24.50;12.40;;;;;;;;;;4993783;28;20149;-78
2020/12/05 11:56:02;;;;;;;22.98;11.95;;;;;;;;;;5008792;28;20513;-79
2020/12/05 11:58:28;;;;;;;21.23;11.35;;;;;;;;;;4994359;28;20306;-79
2020/12/05 12:00:54;;;;;;;24.27;12.85;;;;;;;;;;4976867;28;20069;-79
2020/12/05 12:03:20;;;;;;;24.15;12.77;;;;;;;;;;4993574;28;20069;-77
2020/12/05 12:05:47;;;;;;;23.75;13.13;;;;;;;;;;4984209;28;20093;-77
2020/12/05 12:08:13;;;;;;;26.33;13.70;;;;;;;;;;4992570;28;20039;-78
2020/12/05 12:10:39;;;;;;;25.15;12.70;;;;;;;;;;4994268;28;20042;-78
2020/12/05 12:13:06;;;;;;;23.23;12.43;;;;;;;;;;4990620;28;20168;-79
2020/12/05 12:15:32;;;;;;;27.02;12.48;;;;;;;;;;4993340;28;20074;-78
2020/12/05 12:17:58;;;;;;;26.20;13.00;;;;;;;;;;4990663;28;20050;-79
2020/12/05 12:20:24;;;;;;;23.08;11.93;;;;;;;;;;4990564;28;20046;-80
2020/12/05 12:22:51;;;;;;;22.98;11.52;;;;;;;;;;4994009;28;20050;-79
2020/12/05 12:25:18;;;;;;;21.10;11.75;;;;;;;;;;4999828;28;20058;-79
2020/12/05 12:27:44;;;;;;;24.63;12.48;;;;;;;;;;5002794;28;20070;-79
2020/12/05 12:30:10;;;;;;;26.83;12.48;;;;;;;;;;5000777;28;20052;-76
2020/12/05 12:32:37;;;;;;;23.50;11.93;;;;;;;;;;5008745;28;20102;-81
2020/12/05 12:35:03;;;;;;;22.77;12.13;;;;;;;;;;5008420;28;20050;-80
2020/12/05 12:37:29;;;;;;;23.08;11.88;;;;;;;;;;4992578;28;20046;-79
2020/12/05 12:39:55;;;;;;;25.02;12.70;;;;;;;;;;4992859;28;20422;-79
2020/12/05 12:42:25;;;;;;;25.83;13.50;;;;;;;;;;4991746;28;20438;-78
2020/12/05 12:44:52;;;;;;;24.73;12.88;;;;;;;;;;4991861;28;20053;-78
2020/12/05 12:50:00;;;;;;;22.90;12.13;;;;;;;;;;4985640;28;20042;-79
2020/12/05 12:52:28;;;;;;;25.35;12.65;;;;;;;;;;4974288;28;20114;-79
2020/12/05 12:54:54;;;;;;;23.45;12.55;;;;;;;;;;5003052;28;20045;-77
2020/12/05 12:57:23;;;;;;;23.42;11.98;;;;;;;;;;4993368;28;20050;-79
2020/12/05 12:59:49;;;;;;;23.13;11.98;;;;;;;;;;4992051;28;20101;-78
2020/12/05 13:02:16;;;;;;;24.60;12.50;;;;;;;;;;4993646;28;20418;-78
2020/12/05 13:04:42;;;;;;;27.42;12.95;;;;;;;;;;4992878;28;20046;-75
2020/12/05 13:07:08;;;;;;;24.25;11.90;;;;;;;;;;4986434;28;20121;-79
2020/12/05 13:09:35;;;;;;;24.88;12.63;;;;;;;;;;4988050;28;20688;-79
2020/12/05 13:12:01;;;;;;;21.55;11.80;;;;;;;;;;4992077;28;20042;-77
2020/12/05 13:14:27;;;;;;;23.95;11.90;;;;;;;;;;4991733;28;20046;-78
2020/12/05 13:16:54;;;;;;;22.25;11.25;;;;;;;;;;4987543;28;20085;-77
2020/12/05 13:19:20;;;;;;;22.42;12.25;;;;;;;;;;4991754;28;20042;-77
2020/12/05 13:21:47;;;;;;;22.35;11.88;;;;;;;;;;4990599;28;20038;-77
2020/12/05 13:24:13;;;;;;;23.13;11.85;;;;;;;;;;4993328;28;20049;-81
2020/12/05 13:26:39;;;;;;;24.05;12.15;;;;;;;;;;4989925;28;20062;-79
2020/12/05 13:29:05;;;;;;;24.73;11.75;;;;;;;;;;4970835;28;20129;-79
2020/12/05 13:31:33;;;;;;;24.45;11.52;;;;;;;;;;4972167;28;20031;-80
2020/12/05 13:34:03;;;;;;;22.23;12.27;;;;;;;;;;5003055;28;20038;-80
2020/12/05 13:36:30;;;;;;;24.60;12.15;;;;;;;;;;5006330;28;20043;-76
2020/12/05 13:38:57;;;;;;;24.83;12.40;;;;;;;;;;4988753;28;20046;-78
2020/12/05 13:41:23;;;;;;;25.25;12.35;;;;;;;;;;4992097;28;20038;-78
2020/12/05 13:43:50;;;;;;;23.73;11.68;;;;;;;;;;4989619;28;20050;-78
2020/12/05 13:46:17;;;;;;;26.42;12.25;;;;;;;;;;4989923;28;20046;-78
2020/12/05 13:48:45;;;;;;;30.85;12.27;;;;;;;;;;4971297;28;20062;-79
2020/12/05 13:51:14;;;;;;;25.42;11.60;;;;;;;;;;4990494;28;20129;-79
2020/12/05 13:53:55;;;;;;;20.83;11.13;;;;;;;;;;5019587;23;20045;-79
2020/12/05 13:56:31;;;;;;;24.52;11.82;;;;;;;;;;5017464;28;20104;-79
2020/12/05 13:59:37;;;;;;;22.23;11.82;;;;;;;;;;4984973;28;20088;-81
2020/12/05 14:02:19;;;;;;;24.50;11.70;;;;;;;;;;5016440;28;20045;-82
2020/12/05 14:05:15;;;;;;;24.48;12.07;;;;;;;;;;5003909;28;20046;-78
2020/12/05 14:08:12;;;;;;;28.67;12.25;;;;;;;;;;4972047;28;20093;-80
2020/12/05 14:11:08;;;;;;;28.85;12.77;;;;;;;;;;4987384;28;20097;-79
2020/12/05 14:13:45;;;;;;;28.55;12.40;;;;;;;;;;4973969;28;20043;-80
2020/12/05 14:16:35;;;;;;;21.88;11.35;;;;;;;;;;4962368;28;20098;-79
2020/12/05 14:19:49;;;;;;;25.55;12.65;;;;;;;;;;4980227;28;20124;-79
2020/12/05 14:22:21;;;;;;;26.45;14.20;;;;;;;;;;4991127;28;20058;-81
2020/12/05 14:25:18;;;;;;;26.20;12.75;;;;;;;;;;4946727;28;20069;-79
2020/12/05 14:28:47;;;;;;;27.70;12.98;;;;;;;;;;4943485;28;20478;-81
2020/12/05 14:31:49;;;;;;;25.85;12.60;;;;;;;;;;4963373;28;20254;-77
2020/12/05 14:34:36;;;;;;;27.48;12.43;;;;;;;;;;4941734;28;20047;-79
2020/12/05 14:37:38;;;;;;;26.85;13.30;;;;;;;;;;4958822;28;20189;-80